Time,TemperatureF,DewpointF,PressureIn,WindDirection,WindDirectionDegrees,WindSpeedMPH,WindSpeedGustMPH,Humidity,HourlyPrecipIn,Conditions,Clouds,dailyrainin,SoftwareType,DateUTC
2013-02-13 00:00:00,27.9,23.4,29.95,West,273,0.0,0.0,83,0.00,,,0.00,Wunderground v.1.13,2013-02-13 05:00:00,
2013-02-13 00:05:00,27.7,23.2,29.94,West,273,0.0,0.0,83,0.00,,,0.00,Wunderground v.1.13,2013-02-13 05:05:00,
2013-02-13 00:10:00,27.7,23.2,29.95,West,273,0.0,0.0,83,0.00,,,0.00,Wunderground v.1.13,2013-02-13 05:10:00,
2013-02-13 00:15:00,27.6,23.1,29.95,West,273,0.0,0.0,83,0.00,,,0.00,Wunderground v.1.13,2013-02-13 05:15:00,
2013-02-13 00:25:00,27.5,23.3,29.95,West,273,0.0,0.0,84,0.00,,,0.00,Wunderground v.1.13,2013-02-13 05:25:00,
2013-02-13 00:35:00,27.3,23.1,29.94,West,273,0.0,0.0,84,0.00,,,0.00,Wunderground v.1.13,2013-02-13 05:35:00,
2013-02-13 00:45:00,27.1,22.9,29.94,West,273,0.0,0.0,84,0.00,,,0.00,Wunderground v.1.13,2013-02-13 05:45:00,
2013-02-13 00:50:00,27.1,22.9,29.93,West,273,0.0,0.0,84,0.00,,,0.00,Wunderground v.1.13,2013-02-13 05:50:00,
2013-02-13 01:00:00,26.9,22.7,29.93,West,273,0.0,0.0,84,0.00,,,0.00,Wunderground v.1.13,2013-02-13 06:00:00,
2013-02-13 01:05:00,26.8,22.6,29.93,West,273,0.0,0.0,84,0.00,,,0.00,Wunderground v.1.13,2013-02-13 06:05:00,
2013-02-13 01:15:00,26.7,22.5,29.92,West,273,0.0,0.0,84,0.00,,,0.00,Wunderground v.1.13,2013-02-13 06:15:00,
2013-02-13 01:20:00,26.7,22.5,29.92,West,273,0.0,0.0,84,0.00,,,0.00,Wunderground v.1.13,2013-02-13 06:20:00,
2013-02-13 01:25:00,26.7,22.8,29.92,West,273,0.0,0.0,85,0.00,,,0.00,Wunderground v.1.13,2013-02-13 06:25:00,
2013-02-13 01:35:00,26.6,22.7,29.92,West,273,0.0,0.0,85,0.00,,,0.00,Wunderground v.1.13,2013-02-13 06:35:00,
2013-02-13 01:40:00,26.6,22.7,29.91,West,273,0.0,0.0,85,0.00,,,0.00,Wunderground v.1.13,2013-02-13 06:40:00,
2013-02-13 01:45:00,26.6,22.7,29.91,West,273,0.0,0.0,85,0.00,,,0.00,Wunderground v.1.13,2013-02-13 06:45:00,
2013-02-13 01:55:00,26.5,22.6,29.91,West,273,0.0,0.0,85,0.00,,,0.00,Wunderground v.1.13,2013-02-13 06:55:00,
2013-02-13 02:00:00,26.4,22.5,29.91,West,273,0.0,0.0,85,0.00,,,0.00,Wunderground v.1.13,2013-02-13 07:00:00,
2013-02-13 02:05:00,26.3,22.4,29.91,West,273,0.0,0.0,85,0.00,,,0.00,Wunderground v.1.13,2013-02-13 07:05:00,
2013-02-13 02:15:00,26.2,22.3,29.91,West,273,0.0,0.0,85,0.00,,,0.00,Wunderground v.1.13,2013-02-13 07:15:00,
2013-02-13 02:20:00,26.1,22.2,29.91,West,273,0.0,0.0,85,0.00,,,0.00,Wunderground v.1.13,2013-02-13 07:20:00,
2013-02-13 02:25:00,26.1,22.2,29.91,West,273,0.0,0.0,85,0.00,,,0.00,Wunderground v.1.13,2013-02-13 07:25:00,
2013-02-13 02:35:00,26.0,22.1,29.91,West,273,0.0,0.0,85,0.00,,,0.00,Wunderground v.1.13,2013-02-13 07:35:00,
2013-02-13 02:40:00,26.0,22.1,29.91,West,273,0.0,0.0,85,0.00,,,0.00,Wunderground v.1.13,2013-02-13 07:40:00,
2013-02-13 02:45:00,25.9,22.0,29.91,West,273,0.0,0.0,85,0.00,,,0.00,Wunderground v.1.13,2013-02-13 07:45:00,
2013-02-13 02:50:00,25.8,21.9,29.90,West,273,0.0,0.0,85,0.00,,,0.00,Wunderground v.1.13,2013-02-13 07:50:00,
2013-02-13 02:55:00,25.8,21.9,29.90,West,273,0.0,0.0,85,0.00,,,0.00,Wunderground v.1.13,2013-02-13 07:55:00,
2013-02-13 03:05:00,25.7,22.1,29.90,West,273,0.0,0.0,86,0.00,,,0.00,Wunderground v.1.13,2013-02-13 08:05:00,
2013-02-13 03:15:00,25.6,22.0,29.89,West,273,0.0,0.0,86,0.00,,,0.00,Wunderground v.1.13,2013-02-13 08:15:00,
2013-02-13 03:25:00,25.4,21.8,29.89,West,273,0.0,0.0,86,0.00,,,0.00,Wunderground v.1.13,2013-02-13 08:25:00,
2013-02-13 03:30:00,25.4,21.8,29.89,West,273,0.0,0.0,86,0.00,,,0.00,Wunderground v.1.13,2013-02-13 08:30:00,
2013-02-13 03:35:00,25.3,21.7,29.89,West,273,0.0,0.0,86,0.00,,,0.00,Wunderground v.1.13,2013-02-13 08:35:00,
2013-02-13 03:40:00,25.2,21.6,29.89,West,273,0.0,0.0,86,0.00,,,0.00,Wunderground v.1.13,2013-02-13 08:40:00,
2013-02-13 03:50:00,25.1,21.5,29.89,West,273,0.0,0.0,86,0.00,,,0.00,Wunderground v.1.13,2013-02-13 08:50:00,
2013-02-13 04:00:00,25.0,21.4,29.89,West,273,0.0,0.0,86,0.00,,,0.00,Wunderground v.1.13,2013-02-13 09:00:00,
2013-02-13 04:05:00,24.9,21.3,29.89,West,273,0.0,0.0,86,0.00,,,0.00,Wunderground v.1.13,2013-02-13 09:05:00,
2013-02-13 04:15:00,24.8,21.2,29.89,West,273,0.0,0.0,86,0.00,,,0.00,Wunderground v.1.13,2013-02-13 09:15:00,
2013-02-13 04:25:00,24.7,21.1,29.89,West,273,0.0,0.0,86,0.00,,,0.00,Wunderground v.1.13,2013-02-13 09:25:00,
2013-02-13 04:35:00,24.6,21.3,29.89,West,273,0.0,0.0,87,0.00,,,0.00,Wunderground v.1.13,2013-02-13 09:35:00,
2013-02-13 04:40:00,24.5,21.2,29.89,West,273,0.0,0.0,87,0.00,,,0.00,Wunderground v.1.13,2013-02-13 09:40:00,
2013-02-13 04:50:00,24.5,21.2,29.89,West,273,0.0,0.0,87,0.00,,,0.00,Wunderground v.1.13,2013-02-13 09:50:00,
2013-02-13 04:55:00,24.5,21.2,29.89,West,273,0.0,0.0,87,0.00,,,0.00,Wunderground v.1.13,2013-02-13 09:55:00,
2013-02-13 05:05:00,24.4,21.1,29.88,West,273,0.0,0.0,87,0.00,,,0.00,Wunderground v.1.13,2013-02-13 10:05:00,
2013-02-13 05:15:00,24.3,21.3,29.88,West,273,0.0,0.0,88,0.00,,,0.00,Wunderground v.1.13,2013-02-13 10:15:00,
2013-02-13 05:20:00,24.3,21.3,29.88,West,273,0.0,0.0,88,0.00,,,0.00,Wunderground v.1.13,2013-02-13 10:20:00,
2013-02-13 05:30:00,24.2,21.2,29.88,West,273,0.0,0.0,88,0.00,,,0.00,Wunderground v.1.13,2013-02-13 10:30:00,
2013-02-13 05:35:00,24.2,21.2,29.89,West,273,0.0,0.0,88,0.00,,,0.00,Wunderground v.1.13,2013-02-13 10:35:00,
2013-02-13 05:40:00,24.1,20.8,29.88,West,273,0.0,0.0,87,0.00,,,0.00,Wunderground v.1.13,2013-02-13 10:40:00,
2013-02-13 05:45:00,24.0,20.7,29.89,West,273,0.0,0.0,87,0.00,,,0.00,Wunderground v.1.13,2013-02-13 10:45:00,
2013-02-13 05:55:00,24.0,21.0,29.88,West,273,0.0,0.0,88,0.00,,,0.00,Wunderground v.1.13,2013-02-13 10:55:00,
2013-02-13 06:00:00,24.0,21.0,29.88,West,273,0.0,0.0,88,0.00,,,0.00,Wunderground v.1.13,2013-02-13 11:00:00,
2013-02-13 06:05:00,24.0,21.0,29.88,West,273,0.0,0.0,88,0.00,,,0.00,Wunderground v.1.13,2013-02-13 11:05:00,
2013-02-13 06:15:00,24.0,21.0,29.87,West,273,0.0,0.0,88,0.00,,,0.00,Wunderground v.1.13,2013-02-13 11:15:00,
2013-02-13 06:20:00,24.1,21.1,29.87,West,273,0.0,0.0,88,0.00,,,0.00,Wunderground v.1.13,2013-02-13 11:20:00,
2013-02-13 06:30:00,24.2,21.2,29.86,West,273,0.0,0.0,88,0.00,,,0.00,Wunderground v.1.13,2013-02-13 11:30:00,
2013-02-13 06:35:00,24.3,21.3,29.86,West,273,0.0,0.0,88,0.00,,,0.00,Wunderground v.1.13,2013-02-13 11:35:00,
2013-02-13 06:40:00,24.3,21.3,29.86,West,273,0.0,0.0,88,0.00,,,0.00,Wunderground v.1.13,2013-02-13 11:40:00,
2013-02-13 06:50:00,24.3,21.3,29.86,West,273,0.0,0.0,88,0.00,,,0.00,Wunderground v.1.13,2013-02-13 11:50:00,
2013-02-13 06:55:00,24.3,21.3,29.86,West,273,0.0,0.0,88,0.00,,,0.00,Wunderground v.1.13,2013-02-13 11:55:00,
2013-02-13 07:05:00,24.3,21.3,29.85,West,273,0.0,0.0,88,0.00,,,0.00,Wunderground v.1.13,2013-02-13 12:05:00,
2013-02-13 07:15:00,24.3,21.3,29.85,West,273,0.0,0.0,88,0.00,,,0.00,Wunderground v.1.13,2013-02-13 12:15:00,
2013-02-13 07:20:00,24.3,21.3,29.85,West,273,0.0,0.0,88,0.00,,,0.00,Wunderground v.1.13,2013-02-13 12:20:00,
2013-02-13 07:25:00,24.2,21.2,29.84,West,273,0.0,0.0,88,0.00,,,0.00,Wunderground v.1.13,2013-02-13 12:25:00,
2013-02-13 07:30:00,24.2,21.2,29.84,West,273,0.0,0.0,88,0.00,,,0.00,Wunderground v.1.13,2013-02-13 12:30:00,
2013-02-13 07:40:00,24.2,21.2,29.84,West,273,0.0,0.0,88,0.00,,,0.00,Wunderground v.1.13,2013-02-13 12:40:00,
2013-02-13 07:45:00,24.3,21.3,29.84,West,273,0.0,0.0,88,0.00,,,0.00,Wunderground v.1.13,2013-02-13 12:45:00,
2013-02-13 07:55:00,24.3,21.3,29.84,West,273,0.0,0.0,88,0.00,,,0.00,Wunderground v.1.13,2013-02-13 12:55:00,
2013-02-13 08:05:00,24.9,22.1,29.84,West,273,0.0,0.0,89,0.00,,,0.00,Wunderground v.1.13,2013-02-13 13:05:00,
2013-02-13 08:15:00,25.8,23.0,29.83,West,273,0.0,0.0,89,0.00,,,0.00,Wunderground v.1.13,2013-02-13 13:15:00,
2013-02-13 08:25:00,26.0,23.2,29.82,West,273,0.0,0.0,89,0.00,,,0.00,Wunderground v.1.13,2013-02-13 13:25:00,
2013-02-13 08:35:00,26.2,23.4,29.82,SSW,196,0.0,0.0,89,0.00,,,0.00,Wunderground v.1.13,2013-02-13 13:35:00,
2013-02-13 08:40:00,26.3,23.5,29.81,SSW,196,0.0,0.0,89,0.00,,,0.00,Wunderground v.1.13,2013-02-13 13:40:00,
2013-02-13 08:50:00,26.5,23.7,29.82,SSW,196,0.0,1.0,89,0.00,,,0.00,Wunderground v.1.13,2013-02-13 13:50:00,
2013-02-13 08:55:00,26.7,23.9,29.82,SSW,196,0.0,0.0,89,0.00,,,0.00,Wunderground v.1.13,2013-02-13 13:55:00,
2013-02-13 09:00:00,26.9,24.1,29.81,SSW,196,0.0,0.0,89,0.00,,,0.00,Wunderground v.1.13,2013-02-13 14:00:00,
2013-02-13 09:05:00,27.3,24.5,29.80,SSW,196,0.0,0.0,89,0.00,,,0.00,Wunderground v.1.13,2013-02-13 14:05:00,
2013-02-13 09:15:00,27.9,25.1,29.79,SSW,196,0.0,0.0,89,0.00,,,0.00,Wunderground v.1.13,2013-02-13 14:15:00,
2013-02-13 09:20:00,28.3,25.7,29.78,SSW,196,0.0,0.0,90,0.00,,,0.00,Wunderground v.1.13,2013-02-13 14:20:00,
2013-02-13 09:30:00,29.4,26.8,29.79,SSW,196,0.0,0.0,90,0.00,,,0.00,Wunderground v.1.13,2013-02-13 14:30:00,
2013-02-13 09:35:00,29.7,26.6,29.79,SSW,196,0.0,3.0,88,0.00,,,0.00,Wunderground v.1.13,2013-02-13 14:35:00,
2013-02-13 09:40:00,29.9,26.5,29.80,SSW,196,0.0,2.0,87,0.00,,,0.00,Wunderground v.1.13,2013-02-13 14:40:00,
2013-02-13 09:50:00,30.3,26.3,29.81,SSW,196,0.0,2.0,85,0.00,,,0.00,Wunderground v.1.13,2013-02-13 14:50:00,
2013-02-13 09:55:00,30.7,26.4,29.81,SSW,196,0.0,3.0,84,0.00,,,0.00,Wunderground v.1.13,2013-02-13 14:55:00,
2013-02-13 10:05:00,31.5,27.2,29.82,SSW,196,0.0,1.0,84,0.00,,,0.00,Wunderground v.1.13,2013-02-13 15:05:00,
2013-02-13 10:15:00,32.1,27.8,29.82,SSW,196,0.0,2.0,84,0.00,,,0.00,Wunderground v.1.13,2013-02-13 15:15:00,
2013-02-13 10:20:00,32.3,27.7,29.81,SSW,196,0.0,2.0,83,0.00,,,0.00,Wunderground v.1.13,2013-02-13 15:20:00,
2013-02-13 10:25:00,32.5,27.9,29.81,SSW,195,0.0,2.0,83,0.00,,,0.00,Wunderground v.1.13,2013-02-13 15:25:00,
2013-02-13 10:35:00,33.1,28.5,29.80,SSW,195,0.0,0.0,83,0.00,,,0.00,Wunderground v.1.13,2013-02-13 15:35:00,
2013-02-13 10:40:00,33.5,28.3,29.79,SSW,196,0.0,0.0,81,0.00,,,0.00,Wunderground v.1.13,2013-02-13 15:40:00,
2013-02-13 10:45:00,33.9,28.7,29.79,SSW,196,0.0,1.0,81,0.00,,,0.00,Wunderground v.1.13,2013-02-13 15:45:00,
2013-02-13 10:50:00,34.4,28.6,29.78,SSW,195,0.0,1.0,79,0.00,,,0.00,Wunderground v.1.13,2013-02-13 15:50:00,
2013-02-13 11:00:00,35.8,28.6,29.79,SW,229,1.0,1.0,75,0.00,,,0.00,Wunderground v.1.13,2013-02-13 16:00:00,
2013-02-13 11:05:00,36.2,28.7,29.78,SW,229,0.0,2.0,74,0.00,,,0.00,Wunderground v.1.13,2013-02-13 16:05:00,
2013-02-13 11:15:00,37.1,29.2,29.78,SW,229,0.0,2.0,73,0.00,,,0.00,Wunderground v.1.13,2013-02-13 16:15:00,
2013-02-13 11:20:00,37.3,29.1,29.78,SW,229,0.0,1.0,72,0.00,,,0.00,Wunderground v.1.13,2013-02-13 16:20:00,
2013-02-13 11:25:00,37.5,29.3,29.78,SW,229,0.0,1.0,72,0.00,,,0.00,Wunderground v.1.13,2013-02-13 16:25:00,
2013-02-13 11:35:00,38.0,29.4,29.78,SW,229,0.0,1.0,71,0.00,,,0.00,Wunderground v.1.13,2013-02-13 16:35:00,
2013-02-13 11:45:00,37.9,29.3,29.78,WSW,241,2.0,2.0,71,0.00,,,0.00,Wunderground v.1.13,2013-02-13 16:45:00,
2013-02-13 11:55:00,38.3,29.7,29.78,WSW,241,0.0,3.0,71,0.00,,,0.00,Wunderground v.1.13,2013-02-13 16:55:00,
2013-02-13 12:06:00,38.7,29.4,29.77,WSW,241,1.0,1.0,69,0.00,,,0.00,Wunderground v.1.13,2013-02-13 17:06:00,
2013-02-13 12:15:00,39.2,29.9,29.76,SSW,194,0.0,4.0,69,0.00,,,0.00,Wunderground v.1.13,2013-02-13 17:15:00,
2013-02-13 12:20:00,39.4,29.7,29.76,SSW,199,0.0,2.0,68,0.00,,,0.00,Wunderground v.1.13,2013-02-13 17:20:00,
2013-02-13 12:25:00,39.6,30.3,29.75,SSW,199,1.0,1.0,69,0.00,,,0.00,Wunderground v.1.13,2013-02-13 17:25:00,
2013-02-13 12:30:00,39.8,29.7,29.75,SSW,199,0.0,1.0,67,0.00,,,0.00,Wunderground v.1.13,2013-02-13 17:30:00,
2013-02-13 12:40:00,39.9,29.8,29.74,WSW,241,1.0,1.0,67,0.00,,,0.00,Wunderground v.1.13,2013-02-13 17:40:00,
2013-02-13 12:45:00,39.9,29.8,29.74,WSW,241,0.0,1.0,67,0.00,,,0.00,Wunderground v.1.13,2013-02-13 17:45:00,
2013-02-13 12:50:00,40.0,29.6,29.73,WSW,241,0.0,2.0,66,0.00,,,0.00,Wunderground v.1.13,2013-02-13 17:50:00,
2013-02-13 13:00:00,40.1,29.6,29.73,WSW,241,0.0,1.0,66,0.00,,,0.00,Wunderground v.1.13,2013-02-13 18:00:00,
2013-02-13 13:05:00,40.1,29.3,29.72,WSW,241,1.0,1.0,65,0.00,,,0.00,Wunderground v.1.13,2013-02-13 18:05:00,
2013-02-13 13:15:00,40.2,29.4,29.72,SW,229,2.0,2.0,65,0.00,,,0.00,Wunderground v.1.13,2013-02-13 18:15:00,
2013-02-13 13:20:00,40.3,29.5,29.72,SW,229,1.0,1.0,65,0.00,,,0.00,Wunderground v.1.13,2013-02-13 18:20:00,
2013-02-13 13:30:00,40.4,29.9,29.73,SW,229,0.0,2.0,66,0.00,,,0.00,Wunderground v.1.13,2013-02-13 18:30:00,
2013-02-13 13:35:00,40.4,29.6,29.73,SW,229,0.0,0.0,65,0.00,,,0.00,Wunderground v.1.13,2013-02-13 18:35:00,
2013-02-13 13:45:00,40.6,29.7,29.72,SW,229,0.0,1.0,65,0.00,,,0.00,Wunderground v.1.13,2013-02-13 18:45:00,
2013-02-13 13:55:00,40.6,30.1,29.71,SSW,203,0.0,2.0,66,0.00,,,0.00,Wunderground v.1.13,2013-02-13 18:55:00,
2013-02-13 14:00:00,40.4,30.3,29.71,SSW,203,1.0,1.0,67,0.00,,,0.00,Wunderground v.1.13,2013-02-13 19:00:00,
2013-02-13 14:05:00,40.3,30.6,29.72,SSW,203,1.0,2.0,68,0.00,,,0.00,Wunderground v.1.13,2013-02-13 19:05:00,
2013-02-13 14:15:00,40.0,30.3,29.71,SSW,203,0.0,1.0,68,0.00,,,0.00,Wunderground v.1.13,2013-02-13 19:15:00,
2013-02-13 14:20:00,39.8,30.1,29.71,SSW,203,0.0,0.0,68,0.00,,,0.00,Wunderground v.1.13,2013-02-13 19:20:00,
2013-02-13 14:30:00,39.5,30.2,29.70,SW,215,1.0,1.0,69,0.00,,,0.00,Wunderground v.1.13,2013-02-13 19:30:00,
2013-02-13 14:40:00,39.4,30.8,29.70,SSE,161,1.0,1.0,71,0.00,,,0.00,Wunderground v.1.13,2013-02-13 19:40:00,
2013-02-13 14:45:00,39.4,30.8,29.70,SSE,161,1.0,1.0,71,0.00,,,0.00,Wunderground v.1.13,2013-02-13 19:45:00,
2013-02-13 14:50:00,39.3,31.0,29.71,SSE,161,0.0,2.0,72,0.00,,,0.00,Wunderground v.1.13,2013-02-13 19:50:00,
2013-02-13 15:00:00,39.0,30.7,29.70,South,190,0.0,1.0,72,0.00,,,0.00,Wunderground v.1.13,2013-02-13 20:00:00,
2013-02-13 15:05:00,38.9,31.3,29.70,South,190,0.0,3.0,74,0.00,,,0.00,Wunderground v.1.13,2013-02-13 20:05:00,
2013-02-13 15:15:00,38.6,30.7,29.70,SSE,150,1.0,1.0,73,0.00,,,0.00,Wunderground v.1.13,2013-02-13 20:15:00,
2013-02-13 15:25:00,38.2,31.3,29.71,East,101,0.0,1.0,76,0.00,,,0.00,Wunderground v.1.13,2013-02-13 20:25:00,
2013-02-13 15:35:00,37.6,31.4,29.71,South,179,0.0,2.0,78,0.00,,,0.00,Wunderground v.1.13,2013-02-13 20:35:00,
2013-02-13 15:40:00,37.4,31.5,29.72,South,179,0.0,2.0,79,0.00,,,0.00,Wunderground v.1.13,2013-02-13 20:40:00,
2013-02-13 15:45:00,37.3,31.4,29.72,South,179,0.0,1.0,79,0.00,,,0.00,Wunderground v.1.13,2013-02-13 20:45:00,
2013-02-13 15:55:00,36.8,31.2,29.72,South,179,0.0,2.0,80,0.00,,,0.00,Wunderground v.1.13,2013-02-13 20:55:00,
2013-02-13 16:05:00,36.4,30.8,29.72,South,179,0.0,0.0,80,0.00,,,0.01,Wunderground v.1.13,2013-02-13 21:05:00,
2013-02-13 16:15:00,36.2,30.9,29.73,South,179,0.0,0.0,81,0.00,,,0.01,Wunderground v.1.13,2013-02-13 21:15:00,
2013-02-13 16:20:00,36.1,30.8,29.73,South,179,0.0,0.0,81,0.00,,,0.01,Wunderground v.1.13,2013-02-13 21:20:00,
2013-02-13 16:25:00,36.0,30.7,29.72,South,179,0.0,0.0,81,0.00,,,0.02,Wunderground v.1.13,2013-02-13 21:25:00,
2013-02-13 16:35:00,35.6,30.3,29.73,South,179,0.0,0.0,81,0.00,,,0.02,Wunderground v.1.13,2013-02-13 21:35:00,
2013-02-13 16:40:00,35.4,30.1,29.73,South,179,0.0,0.0,81,0.00,,,0.02,Wunderground v.1.13,2013-02-13 21:40:00,
2013-02-13 16:45:00,35.1,29.9,29.73,South,179,0.0,0.0,81,0.00,,,0.02,Wunderground v.1.13,2013-02-13 21:45:00,
2013-02-13 16:50:00,34.9,30.0,29.73,South,179,0.0,0.0,82,0.00,,,0.02,Wunderground v.1.13,2013-02-13 21:50:00,
2013-02-13 17:00:00,34.4,29.5,29.73,South,179,0.0,0.0,82,0.00,,,0.02,Wunderground v.1.13,2013-02-13 22:00:00,
2013-02-13 17:05:00,34.3,29.4,29.73,South,179,0.0,0.0,82,0.00,,,0.02,Wunderground v.1.13,2013-02-13 22:05:00,
2013-02-13 17:15:00,33.9,29.6,29.73,South,179,0.0,0.0,84,0.00,,,0.02,Wunderground v.1.13,2013-02-13 22:15:00,
2013-02-13 17:25:00,33.5,29.5,29.73,South,179,0.0,0.0,85,0.00,,,0.02,Wunderground v.1.13,2013-02-13 22:25:00,
2013-02-13 17:30:00,33.4,29.4,29.73,South,179,0.0,0.0,85,0.00,,,0.02,Wunderground v.1.13,2013-02-13 22:30:00,
2013-02-13 17:35:00,33.2,29.2,29.73,South,179,0.0,0.0,85,0.00,,,0.02,Wunderground v.1.13,2013-02-13 22:35:00,
2013-02-13 17:45:00,33.1,29.1,29.74,South,179,0.0,0.0,85,0.00,,,0.02,Wunderground v.1.13,2013-02-13 22:45:00,
2013-02-13 17:50:00,33.0,29.0,29.74,South,179,0.0,0.0,85,0.00,,,0.02,Wunderground v.1.13,2013-02-13 22:50:00,
2013-02-13 18:00:00,32.9,29.2,29.75,South,179,0.0,0.0,86,0.00,,,0.02,Wunderground v.1.13,2013-02-13 23:00:00,
2013-02-13 18:05:00,32.9,29.2,29.75,South,179,0.0,0.0,86,0.00,,,0.02,Wunderground v.1.13,2013-02-13 23:05:00,
2013-02-13 18:15:00,32.8,29.4,29.75,South,179,0.0,0.0,87,0.00,,,0.02,Wunderground v.1.13,2013-02-13 23:15:00,
2013-02-13 18:20:00,32.8,29.4,29.75,South,179,0.0,0.0,87,0.00,,,0.02,Wunderground v.1.13,2013-02-13 23:20:00,
2013-02-13 18:30:00,32.7,29.3,29.76,South,179,0.0,0.0,87,0.00,,,0.02,Wunderground v.1.13,2013-02-13 23:30:00,
2013-02-13 18:35:00,32.7,29.3,29.76,South,179,0.0,0.0,87,0.00,,,0.02,Wunderground v.1.13,2013-02-13 23:35:00,
2013-02-13 18:45:00,32.7,29.5,29.76,South,179,0.0,0.0,88,0.00,,,0.02,Wunderground v.1.13,2013-02-13 23:45:00,
2013-02-13 18:50:00,32.7,29.5,29.76,South,179,0.0,0.0,88,0.00,,,0.02,Wunderground v.1.13,2013-02-13 23:50:00,
2013-02-13 18:55:00,32.7,29.5,29.77,South,179,0.0,0.0,88,0.00,,,0.02,Wunderground v.1.13,2013-02-13 23:55:00,
2013-02-13 19:00:00,32.7,29.5,29.77,South,179,0.0,0.0,88,0.00,,,0.02,Wunderground v.1.13,2013-02-14 00:00:00,
2013-02-13 19:05:00,32.7,29.5,29.77,South,179,0.0,0.0,88,0.00,,,0.02,Wunderground v.1.13,2013-02-14 00:05:00,
2013-02-13 19:15:00,32.7,29.8,29.77,South,179,0.0,0.0,89,0.00,,,0.02,Wunderground v.1.13,2013-02-14 00:15:00,
2013-02-13 19:20:00,32.7,29.8,29.77,South,179,0.0,0.0,89,0.00,,,0.02,Wunderground v.1.13,2013-02-14 00:20:00,
2013-02-13 19:30:00,32.6,29.7,29.78,South,179,0.0,0.0,89,0.00,,,0.02,Wunderground v.1.13,2013-02-14 00:30:00,
2013-02-13 19:40:00,32.6,29.7,29.78,South,179,0.0,0.0,89,0.00,,,0.02,Wunderground v.1.13,2013-02-14 00:40:00,
2013-02-13 19:45:00,32.6,29.7,29.79,South,179,0.0,0.0,89,0.00,,,0.02,Wunderground v.1.13,2013-02-14 00:45:00,
2013-02-13 19:50:00,32.6,29.7,29.79,South,179,0.0,0.0,89,0.00,,,0.02,Wunderground v.1.13,2013-02-14 00:50:00,
2013-02-13 20:00:00,32.6,29.7,29.80,South,179,0.0,0.0,89,0.00,,,0.02,Wunderground v.1.13,2013-02-14 01:00:00,
2013-02-13 20:05:00,32.6,29.7,29.80,South,179,0.0,0.0,89,0.00,,,0.02,Wunderground v.1.13,2013-02-14 01:05:00,
2013-02-13 20:15:00,32.6,29.7,29.80,South,179,0.0,0.0,89,0.00,,,0.02,Wunderground v.1.13,2013-02-14 01:15:00,
2013-02-13 20:20:00,32.6,30.0,29.80,South,179,0.0,0.0,90,0.00,,,0.02,Wunderground v.1.13,2013-02-14 01:20:00,
2013-02-13 20:30:00,32.6,30.0,29.81,South,179,0.0,0.0,90,0.00,,,0.02,Wunderground v.1.13,2013-02-14 01:30:00,
2013-02-13 20:35:00,32.6,30.0,29.81,South,179,0.0,0.0,90,0.00,,,0.02,Wunderground v.1.13,2013-02-14 01:35:00,
2013-02-13 20:40:00,32.5,29.9,29.81,South,179,0.0,0.0,90,0.00,,,0.02,Wunderground v.1.13,2013-02-14 01:40:00,
2013-02-13 20:50:00,32.5,29.9,29.82,South,179,0.0,0.0,90,0.00,,,0.02,Wunderground v.1.13,2013-02-14 01:50:00,
2013-02-13 20:55:00,32.6,30.0,29.82,South,179,0.0,1.0,90,0.00,,,0.02,Wunderground v.1.13,2013-02-14 01:55:00,
2013-02-13 21:05:00,32.6,30.0,29.82,South,179,0.0,0.0,90,0.00,,,0.02,Wunderground v.1.13,2013-02-14 02:05:00,
2013-02-13 21:15:00,32.6,30.0,29.82,South,179,0.0,0.0,90,0.00,,,0.02,Wunderground v.1.13,2013-02-14 02:15:00,
2013-02-13 21:20:00,32.6,30.0,29.83,South,179,0.0,0.0,90,0.00,,,0.02,Wunderground v.1.13,2013-02-14 02:20:00,
2013-02-13 21:25:00,32.5,29.9,29.83,South,179,0.0,0.0,90,0.00,,,0.02,Wunderground v.1.13,2013-02-14 02:25:00,
2013-02-13 21:35:00,32.5,29.9,29.84,South,179,0.0,0.0,90,0.00,,,0.02,Wunderground v.1.13,2013-02-14 02:35:00,
2013-02-13 21:40:00,32.4,29.8,29.84,South,179,0.0,0.0,90,0.00,,,0.02,Wunderground v.1.13,2013-02-14 02:40:00,
2013-02-13 21:50:00,32.3,29.7,29.84,South,179,0.0,0.0,90,0.00,,,0.02,Wunderground v.1.13,2013-02-14 02:50:00,
2013-02-13 21:55:00,32.2,29.6,29.84,South,179,0.0,0.0,90,0.00,,,0.02,Wunderground v.1.13,2013-02-14 02:55:00,
2013-02-13 22:05:00,32.0,29.4,29.84,South,179,0.0,0.0,90,0.00,,,0.02,Wunderground v.1.13,2013-02-14 03:05:00,
2013-02-13 22:15:00,31.8,29.2,29.85,South,179,0.0,0.0,90,0.00,,,0.02,Wunderground v.1.13,2013-02-14 03:15:00,
2013-02-13 22:25:00,31.5,28.9,29.85,South,179,0.0,0.0,90,0.00,,,0.02,Wunderground v.1.13,2013-02-14 03:25:00,
2013-02-13 22:30:00,31.4,28.8,29.85,South,179,0.0,0.0,90,0.00,,,0.02,Wunderground v.1.13,2013-02-14 03:30:00,
2013-02-13 22:35:00,31.2,28.6,29.85,South,179,0.0,0.0,90,0.00,,,0.02,Wunderground v.1.13,2013-02-14 03:35:00,
2013-02-13 22:40:00,31.0,28.4,29.85,South,179,0.0,0.0,90,0.00,,,0.02,Wunderground v.1.13,2013-02-14 03:40:00,
2013-02-13 22:50:00,30.7,28.1,29.86,South,179,0.0,0.0,90,0.00,,,0.02,Wunderground v.1.13,2013-02-14 03:50:00,
2013-02-13 22:55:00,30.5,27.9,29.86,South,179,0.0,0.0,90,0.00,,,0.02,Wunderground v.1.13,2013-02-14 03:55:00,
2013-02-13 23:05:00,30.2,27.6,29.86,South,179,0.0,0.0,90,0.00,,,0.02,Wunderground v.1.13,2013-02-14 04:05:00,
2013-02-13 23:15:00,29.9,27.3,29.86,South,179,0.0,0.0,90,0.00,,,0.02,Wunderground v.1.13,2013-02-14 04:15:00,
2013-02-13 23:20:00,29.9,27.3,29.86,South,169,0.0,0.0,90,0.00,,,0.02,Wunderground v.1.13,2013-02-14 04:20:00,
2013-02-13 23:25:00,29.9,27.3,29.87,South,169,0.0,1.0,90,0.00,,,0.02,Wunderground v.1.13,2013-02-14 04:25:00,
2013-02-13 23:30:00,29.8,27.2,29.87,South,169,0.0,0.0,90,0.00,,,0.02,Wunderground v.1.13,2013-02-14 04:30:00,
2013-02-13 23:40:00,29.7,27.1,29.88,South,169,0.0,0.0,90,0.00,,,0.02,Wunderground v.1.13,2013-02-14 04:40:00,
2013-02-13 23:50:00,29.6,27.0,29.89,WSW,248,0.0,0.0,90,0.00,,,0.02,Wunderground v.1.13,2013-02-14 04:50:00,
2013-02-13 23:55:00,29.5,26.9,29.89,WSW,248,0.0,1.0,90,0.00,,,0.02,Wunderground v.1.13,2013-02-14 04:55:00,